sensor_id;sensor_type;location;lat;lon;timestamp;pressure;altitude;pressure_sealevel;temperature;humidity
21182;BME280;10749;46.296;7.524;2023-02-28T00:00:01;94883.72;;;3.38;37.53
21182;BME280;10749;46.296;7.524;2023-02-28T00:02:34;94878.19;;;3.32;37.60
21182;BME280;10749;46.296;7.524;2023-02-28T00:04:59;94875.28;;;3.25;37.52
21182;BME280;10749;46.296;7.524;2023-02-28T00:07:27;94886.56;;;3.16;37.96
21182;BME280;10749;46.296;7.524;2023-02-28T00:09:52;94883.41;;;3.22;38.01
21182;BME280;10749;46.296;7.524;2023-02-28T00:12:18;94890.00;;;3.16;37.72
21182;BME280;10749;46.296;7.524;2023-02-28T00:14:43;94890.41;;;3.12;37.76
21182;BME280;10749;46.296;7.524;2023-02-28T00:17:08;94886.84;;;3.13;37.69
21182;BME280;10749;46.296;7.524;2023-02-28T00:19:33;94880.66;;;3.14;37.63
21182;BME280;10749;46.296;7.524;2023-02-28T00:21:59;94879.53;;;3.16;38.08
21182;BME280;10749;46.296;7.524;2023-02-28T00:24:24;94887.25;;;3.18;37.76
21182;BME280;10749;46.296;7.524;2023-02-28T00:26:49;94885.47;;;3.18;37.94
21182;BME280;10749;46.296;7.524;2023-02-28T00:29:14;94890.84;;;3.17;38.05
21182;BME280;10749;46.296;7.524;2023-02-28T00:31:40;94893.88;;;3.22;37.48
21182;BME280;10749;46.296;7.524;2023-02-28T00:34:05;94897.84;;;3.16;37.59
21182;BME280;10749;46.296;7.524;2023-02-28T00:36:30;94895.34;;;3.05;37.95
21182;BME280;10749;46.296;7.524;2023-02-28T00:38:56;94901.00;;;3.10;37.85
21182;BME280;10749;46.296;7.524;2023-02-28T00:41:21;94892.84;;;3.04;37.94
21182;BME280;10749;46.296;7.524;2023-02-28T00:43:46;94894.78;;;3.02;38.34
21182;BME280;10749;46.296;7.524;2023-02-28T00:46:11;94890.50;;;3.01;38.22
21182;BME280;10749;46.296;7.524;2023-02-28T00:48:37;94901.25;;;2.98;38.60
21182;BME280;10749;46.296;7.524;2023-02-28T00:51:02;94891.03;;;2.95;38.60
21182;BME280;10749;46.296;7.524;2023-02-28T00:53:28;94896.69;;;3.00;38.34
21182;BME280;10749;46.296;7.524;2023-02-28T00:55:54;94896.31;;;3.04;38.11
21182;BME280;10749;46.296;7.524;2023-02-28T00:58:19;94906.19;;;3.01;38.38
21182;BME280;10749;46.296;7.524;2023-02-28T01:00:45;94906.47;;;2.98;38.44
21182;BME280;10749;46.296;7.524;2023-02-28T01:03:14;94899.03;;;2.93;38.44
21182;BME280;10749;46.296;7.524;2023-02-28T01:05:39;94911.00;;;2.96;38.39
21182;BME280;10749;46.296;7.524;2023-02-28T01:08:05;94911.25;;;2.93;38.84
21182;BME280;10749;46.296;7.524;2023-02-28T01:10:31;94912.75;;;2.86;38.68
21182;BME280;10749;46.296;7.524;2023-02-28T01:12:57;94906.38;;;2.78;38.86
21182;BME280;10749;46.296;7.524;2023-02-28T01:15:22;94910.22;;;2.74;38.93
21182;BME280;10749;46.296;7.524;2023-02-28T01:17:47;94910.53;;;2.81;37.95
21182;BME280;10749;46.296;7.524;2023-02-28T01:20:12;94909.72;;;2.81;37.76
21182;BME280;10749;46.296;7.524;2023-02-28T01:22:38;94902.94;;;2.78;37.82
21182;BME280;10749;46.296;7.524;2023-02-28T01:25:03;94899.75;;;2.74;38.00
21182;BME280;10749;46.296;7.524;2023-02-28T01:27:29;94896.06;;;2.77;38.24
21182;BME280;10749;46.296;7.524;2023-02-28T01:29:54;94897.84;;;2.76;38.54
21182;BME280;10749;46.296;7.524;2023-02-28T01:32:19;94893.97;;;2.71;38.64
21182;BME280;10749;46.296;7.524;2023-02-28T01:34:44;94894.81;;;2.71;38.67
21182;BME280;10749;46.296;7.524;2023-02-28T01:37:10;94898.25;;;2.72;38.79
21182;BME280;10749;46.296;7.524;2023-02-28T01:39:35;94895.75;;;2.70;38.97
21182;BME280;10749;46.296;7.524;2023-02-28T01:42:00;94895.06;;;2.68;39.01
21182;BME280;10749;46.296;7.524;2023-02-28T01:47:19;94889.84;;;2.68;39.26
21182;BME280;10749;46.296;7.524;2023-02-28T01:49:45;94888.75;;;2.71;39.14
21182;BME280;10749;46.296;7.524;2023-02-28T01:52:11;94885.56;;;2.67;39.15
21182;BME280;10749;46.296;7.524;2023-02-28T01:54:45;94888.19;;;2.67;39.29
21182;BME280;10749;46.296;7.524;2023-02-28T01:57:14;94888.19;;;2.67;39.21
21182;BME280;10749;46.296;7.524;2023-02-28T02:02:15;94884.06;;;2.65;39.65
21182;BME280;10749;46.296;7.524;2023-02-28T02:04:51;94875.63;;;2.61;39.69
21182;BME280;10749;46.296;7.524;2023-02-28T02:07:18;94885.44;;;2.69;39.70
21182;BME280;10749;46.296;7.524;2023-02-28T02:09:44;94882.19;;;2.76;39.61
21182;BME280;10749;46.296;7.524;2023-02-28T02:15:12;94879.72;;;2.85;39.22
21182;BME280;10749;46.296;7.524;2023-02-28T02:17:43;94880.84;;;2.92;38.87
21182;BME280;10749;46.296;7.524;2023-02-28T02:31:30;94875.00;;;2.78;39.61
21182;BME280;10749;46.296;7.524;2023-02-28T02:36:38;94877.63;;;2.78;39.99
21182;BME280;10749;46.296;7.524;2023-02-28T02:39:35;94869.78;;;2.78;39.78
21182;BME280;10749;46.296;7.524;2023-02-28T02:42:00;94865.94;;;2.83;39.92
21182;BME280;10749;46.296;7.524;2023-02-28T02:44:31;94872.84;;;2.84;40.05
21182;BME280;10749;46.296;7.524;2023-02-28T02:47:11;94864.31;;;2.82;40.17
21182;BME280;10749;46.296;7.524;2023-02-28T02:49:39;94869.13;;;2.86;40.38
21182;BME280;10749;46.296;7.524;2023-02-28T02:52:09;94872.06;;;2.93;40.33
21182;BME280;10749;46.296;7.524;2023-02-28T02:54:38;94869.16;;;2.96;40.16
21182;BME280;10749;46.296;7.524;2023-02-28T02:57:08;94871.50;;;2.99;40.12
21182;BME280;10749;46.296;7.524;2023-02-28T02:59:38;94873.03;;;3.01;40.21
21182;BME280;10749;46.296;7.524;2023-02-28T03:02:07;94867.41;;;3.06;39.88
21182;BME280;10749;46.296;7.524;2023-02-28T03:04:40;94863.25;;;3.03;40.00
21182;BME280;10749;46.296;7.524;2023-02-28T03:07:07;94866.28;;;2.99;40.27
21182;BME280;10749;46.296;7.524;2023-02-28T03:09:33;94864.81;;;3.06;39.65
21182;BME280;10749;46.296;7.524;2023-02-28T03:11:59;94870.97;;;3.05;38.84
21182;BME280;10749;46.296;7.524;2023-02-28T03:14:56;94859.41;;;2.98;38.29
21182;BME280;10749;46.296;7.524;2023-02-28T03:20:55;94858.41;;;2.89;38.20
21182;BME280;10749;46.296;7.524;2023-02-28T03:26:21;94858.97;;;2.93;39.16
21182;BME280;10749;46.296;7.524;2023-02-28T03:29:12;94857.59;;;2.89;39.38
21182;BME280;10749;46.296;7.524;2023-02-28T03:31:48;94857.59;;;2.89;39.50
21182;BME280;10749;46.296;7.524;2023-02-28T03:37:02;94856.09;;;2.96;39.55
21182;BME280;10749;46.296;7.524;2023-02-28T03:39:34;94865.03;;;3.03;39.22
21182;BME280;10749;46.296;7.524;2023-02-28T03:42:18;94850.91;;;3.05;39.03
21182;BME280;10749;46.296;7.524;2023-02-28T03:44:50;94862.44;;;3.03;39.38
21182;BME280;10749;46.296;7.524;2023-02-28T03:47:50;94864.88;;;2.95;40.03
21182;BME280;10749;46.296;7.524;2023-02-28T03:50:26;94865.59;;;2.97;40.00
21182;BME280;10749;46.296;7.524;2023-02-28T03:52:58;94864.88;;;2.95;40.10
21182;BME280;10749;46.296;7.524;2023-02-28T03:55:28;94869.84;;;2.88;40.34
21182;BME280;10749;46.296;7.524;2023-02-28T03:58:15;94864.59;;;2.88;40.29
21182;BME280;10749;46.296;7.524;2023-02-28T04:00:49;94867.91;;;2.90;40.50
21182;BME280;10749;46.296;7.524;2023-02-28T04:03:18;94872.06;;;2.93;40.58
21182;BME280;10749;46.296;7.524;2023-02-28T04:05:54;94859.81;;;2.93;40.61
21182;BME280;10749;46.296;7.524;2023-02-28T04:08:21;94873.44;;;2.97;40.47
21182;BME280;10749;46.296;7.524;2023-02-28T04:10:52;94870.00;;;2.96;40.69
21182;BME280;10749;46.296;7.524;2023-02-28T04:13:19;94878.81;;;3.05;40.06
21182;BME280;10749;46.296;7.524;2023-02-28T04:15:44;94875.94;;;3.08;39.76
21182;BME280;10749;46.296;7.524;2023-02-28T04:18:09;94868.38;;;3.05;39.58
21182;BME280;10749;46.296;7.524;2023-02-28T04:20:35;94874.81;;;3.01;39.94
21182;BME280;10749;46.296;7.524;2023-02-28T04:23:00;94863.41;;;3.02;40.02
21182;BME280;10749;46.296;7.524;2023-02-28T04:25:25;94871.66;;;3.07;38.70
21182;BME280;10749;46.296;7.524;2023-02-28T04:27:50;94867.66;;;3.03;38.90
21182;BME280;10749;46.296;7.524;2023-02-28T04:30:16;94866.97;;;3.01;38.91
21182;BME280;10749;46.296;7.524;2023-02-28T04:32:41;94874.81;;;3.01;38.57
21182;BME280;10749;46.296;7.524;2023-02-28T04:35:07;94868.88;;;2.99;38.31
21182;BME280;10749;46.296;7.524;2023-02-28T04:37:32;94861.03;;;2.99;38.51
21182;BME280;10749;46.296;7.524;2023-02-28T04:40:00;94857.59;;;2.98;38.46
21182;BME280;10749;46.296;7.524;2023-02-28T04:42:25;94867.94;;;3.00;39.01
21182;BME280;10749;46.296;7.524;2023-02-28T04:44:50;94856.53;;;3.01;39.29
21182;BME280;10749;46.296;7.524;2023-02-28T04:47:15;94863.25;;;3.03;39.55
21182;BME280;10749;46.296;7.524;2023-02-28T04:49:41;94858.34;;;3.10;39.87
21182;BME280;10749;46.296;7.524;2023-02-28T04:52:06;94867.13;;;3.09;40.08
21182;BME280;10749;46.296;7.524;2023-02-28T04:54:32;94862.34;;;3.14;40.63
21182;BME280;10749;46.296;7.524;2023-02-28T04:56:57;94863.03;;;3.16;40.63
21182;BME280;10749;46.296;7.524;2023-02-28T04:59:23;94871.03;;;3.14;40.62
21182;BME280;10749;46.296;7.524;2023-02-28T05:01:49;94858.63;;;3.16;40.13
21182;BME280;10749;46.296;7.524;2023-02-28T05:04:14;94870.75;;;3.17;39.27
21182;BME280;10749;46.296;7.524;2023-02-28T05:06:40;94863.19;;;3.14;39.17
21182;BME280;10749;46.296;7.524;2023-02-28T05:09:05;94867.56;;;3.14;39.82
21182;BME280;10749;46.296;7.524;2023-02-28T05:11:32;94867.13;;;3.09;39.96
21182;BME280;10749;46.296;7.524;2023-02-28T05:14:06;94868.94;;;3.08;40.50
21182;BME280;10749;46.296;7.524;2023-02-28T05:16:32;94858.44;;;2.99;40.80
21182;BME280;10749;46.296;7.524;2023-02-28T05:18:58;94866.56;;;2.96;40.83
21182;BME280;10749;46.296;7.524;2023-02-28T05:23:51;94861.19;;;2.97;41.19
21182;BME280;10749;46.296;7.524;2023-02-28T05:26:17;94870.28;;;3.03;41.11
21182;BME280;10749;46.296;7.524;2023-02-28T05:28:43;94871.81;;;3.05;41.22
21182;BME280;10749;46.296;7.524;2023-02-28T05:31:12;94868.81;;;3.10;41.31
21182;BME280;10749;46.296;7.524;2023-02-28T05:33:37;94873.19;;;3.09;41.32
21182;BME280;10749;46.296;7.524;2023-02-28T05:36:04;94869.31;;;3.04;41.80
21182;BME280;10749;46.296;7.524;2023-02-28T05:38:29;94867.13;;;3.09;41.39
21182;BME280;10749;46.296;7.524;2023-02-28T05:40:54;94867.97;;;3.09;41.56
21182;BME280;10749;46.296;7.524;2023-02-28T05:43:19;94867.41;;;3.06;41.61
21182;BME280;10749;46.296;7.524;2023-02-28T05:45:45;94864.66;;;2.98;41.87
21182;BME280;10749;46.296;7.524;2023-02-28T05:48:10;94859.41;;;2.98;41.89
21182;BME280;10749;46.296;7.524;2023-02-28T05:50:35;94868.22;;;2.97;42.04
21182;BME280;10749;46.296;7.524;2023-02-28T05:53:01;94863.25;;;2.94;41.82
21182;BME280;10749;46.296;7.524;2023-02-28T05:55:26;94866.66;;;2.94;41.78
21182;BME280;10749;46.296;7.524;2023-02-28T05:57:51;94872.09;;;3.02;41.47
21182;BME280;10749;46.296;7.524;2023-02-28T06:00:17;94867.41;;;3.06;41.42
21182;BME280;10749;46.296;7.524;2023-02-28T06:02:43;94867.41;;;3.06;41.76
21182;BME280;10749;46.296;7.524;2023-02-28T06:05:16;94869.03;;;3.07;41.71
21182;BME280;10749;46.296;7.524;2023-02-28T06:07:42;94862.19;;;3.06;42.01
21182;BME280;10749;46.296;7.524;2023-02-28T06:10:09;94862.19;;;3.06;42.21
21182;BME280;10749;46.296;7.524;2023-02-28T06:12:34;94857.78;;;3.06;41.94
21182;BME280;10749;46.296;7.524;2023-02-28T06:14:59;94861.34;;;3.05;42.27
21182;BME280;10749;46.296;7.524;2023-02-28T06:17:25;94867.41;;;3.06;42.37
21182;BME280;10749;46.296;7.524;2023-02-28T06:19:50;94866.59;;;3.15;42.03
21182;BME280;10749;46.296;7.524;2023-02-28T06:22:15;94870.59;;;3.19;42.28
21182;BME280;10749;46.296;7.524;2023-02-28T06:24:41;94871.56;;;3.18;42.34
21182;BME280;10749;46.296;7.524;2023-02-28T06:27:06;94871.81;;;3.15;42.43
21182;BME280;10749;46.296;7.524;2023-02-28T06:29:33;94884.66;;;3.18;42.65
21182;BME280;10749;46.296;7.524;2023-02-28T06:31:58;94877.09;;;3.24;42.53
21182;BME280;10749;46.296;7.524;2023-02-28T06:34:24;94878.75;;;3.25;42.53
21182;BME280;10749;46.296;7.524;2023-02-28T06:36:51;94877.09;;;3.24;42.73
21182;BME280;10749;46.296;7.524;2023-02-28T06:39:17;94876.13;;;3.25;42.77
21182;BME280;10749;46.296;7.524;2023-02-28T06:41:42;94885.91;;;3.33;42.82
21182;BME280;10749;46.296;7.524;2023-02-28T06:44:15;94887.03;;;3.40;42.47
21182;BME280;10749;46.296;7.524;2023-02-28T06:46:42;94889.78;;;3.39;42.72
21182;BME280;10749;46.296;7.524;2023-02-28T06:49:08;94891.72;;;3.46;42.44
21182;BME280;10749;46.296;7.524;2023-02-28T06:51:35;94890.06;;;3.45;42.51
21182;BME280;10749;46.296;7.524;2023-02-28T06:54:01;94889.25;;;3.54;42.08
21182;BME280;10749;46.296;7.524;2023-02-28T06:56:26;94896.81;;;3.57;42.21
21182;BME280;10749;46.296;7.524;2023-02-28T06:58:51;94895.16;;;3.56;42.09
21182;BME280;10749;46.296;7.524;2023-02-28T07:01:21;94904.97;;;3.64;42.51
21182;BME280;10749;46.296;7.524;2023-02-28T07:03:48;94898.91;;;3.63;42.48
21182;BME280;10749;46.296;7.524;2023-02-28T07:06:17;94897.25;;;3.62;42.59
21182;BME280;10749;46.296;7.524;2023-02-28T07:08:43;94909.09;;;3.66;42.77
21182;BME280;10749;46.296;7.524;2023-02-28T07:11:08;94904.97;;;3.64;42.97
21182;BME280;10749;46.296;7.524;2023-02-28T07:13:33;94917.63;;;3.59;43.10
21182;BME280;10749;46.296;7.524;2023-02-28T07:16:01;94917.22;;;3.63;43.08
21182;BME280;10749;46.296;7.524;2023-02-28T07:18:27;94925.34;;;3.60;43.49
21182;BME280;10749;46.296;7.524;2023-02-28T07:20:53;94929.63;;;3.61;43.57
21182;BME280;10749;46.296;7.524;2023-02-28T07:23:19;94934.03;;;3.70;43.66
21182;BME280;10749;46.296;7.524;2023-02-28T07:25:45;94930.31;;;3.73;43.65
21182;BME280;10749;46.296;7.524;2023-02-28T07:28:11;94925.34;;;3.70;43.77
21182;BME280;10749;46.296;7.524;2023-02-28T07:30:36;94921.75;;;3.61;43.91
21182;BME280;10749;46.296;7.524;2023-02-28T07:33:01;94941.78;;;3.72;43.76
21182;BME280;10749;46.296;7.524;2023-02-28T07:35:27;94938.28;;;3.62;44.41
21182;BME280;10749;46.296;7.524;2023-02-28T07:37:52;94940.78;;;3.63;44.36
21182;BME280;10749;46.296;7.524;2023-02-28T07:40:17;94931.94;;;3.64;44.38
21182;BME280;10749;46.296;7.524;2023-02-28T07:42:43;94938.03;;;3.75;42.66
21182;BME280;10749;46.296;7.524;2023-02-28T07:45:10;94939.97;;;3.72;42.19
21182;BME280;10749;46.296;7.524;2023-02-28T07:47:40;94936.94;;;3.67;43.09
21182;BME280;10749;46.296;7.524;2023-02-28T07:50:09;94942.47;;;3.84;43.38
21182;BME280;10749;46.296;7.524;2023-02-28T07:52:39;94934.75;;;3.92;44.02
21182;BME280;10749;46.296;7.524;2023-02-28T07:55:05;94951.03;;;4.05;44.07
21182;BME280;10749;46.296;7.524;2023-02-28T07:57:31;94948.00;;;4.00;44.47
21182;BME280;10749;46.296;7.524;2023-02-28T07:59:57;94941.94;;;4.09;44.43
21182;BME280;10749;46.296;7.524;2023-02-28T08:02:22;94940.53;;;4.14;44.30
21182;BME280;10749;46.296;7.524;2023-02-28T08:04:47;94937.50;;;4.29;43.38
21182;BME280;10749;46.296;7.524;2023-02-28T08:07:13;94929.50;;;4.30;44.26
21182;BME280;10749;46.296;7.524;2023-02-28T08:09:39;94937.75;;;4.45;44.06
21182;BME280;10749;46.296;7.524;2023-02-28T08:12:06;94931.69;;;4.54;44.31
21182;BME280;10749;46.296;7.524;2023-02-28T08:14:31;94937.47;;;4.57;44.42
21182;BME280;10749;46.296;7.524;2023-02-28T08:16:57;94930.56;;;4.56;44.56
21182;BME280;10749;46.296;7.524;2023-02-28T08:19:22;94937.16;;;4.60;44.23
21182;BME280;10749;46.296;7.524;2023-02-28T08:21:47;94940.78;;;4.59;44.43
21182;BME280;10749;46.296;7.524;2023-02-28T08:24:12;94930.53;;;4.76;44.26
21182;BME280;10749;46.296;7.524;2023-02-28T08:26:38;94926.34;;;4.83;44.19
21182;BME280;10749;46.296;7.524;2023-02-28T08:29:03;94929.38;;;4.88;44.32
21182;BME280;10749;46.296;7.524;2023-02-28T08:31:28;94929.09;;;4.91;44.50
21182;BME280;10749;46.296;7.524;2023-02-28T08:33:53;94935.94;;;5.01;44.10
21182;BME280;10749;46.296;7.524;2023-02-28T08:36:21;94931.94;;;5.07;44.22
21182;BME280;10749;46.296;7.524;2023-02-28T08:38:47;94928.53;;;4.97;44.12
21182;BME280;10749;46.296;7.524;2023-02-28T08:41:12;94929.34;;;4.97;44.22
21182;BME280;10749;46.296;7.524;2023-02-28T08:43:39;94923.81;;;5.00;44.30
21182;BME280;10749;46.296;7.524;2023-02-28T08:46:06;94929.19;;;4.99;44.39
21182;BME280;10749;46.296;7.524;2023-02-28T08:48:33;94928.63;;;5.05;44.26
21182;BME280;10749;46.296;7.524;2023-02-28T08:51:01;94932.16;;;5.13;43.97
21182;BME280;10749;46.296;7.524;2023-02-28T08:53:28;94936.63;;;5.13;44.33
21182;BME280;10749;46.296;7.524;2023-02-28T08:56:05;94931.72;;;5.18;44.17
21182;BME280;10749;46.296;7.524;2023-02-28T08:58:31;94930.56;;;5.30;44.20
21182;BME280;10749;46.296;7.524;2023-02-28T09:00:57;94936.41;;;5.24;44.21
21182;BME280;10749;46.296;7.524;2023-02-28T09:03:22;94937.25;;;5.25;44.14
21182;BME280;10749;46.296;7.524;2023-02-28T09:05:55;94931.69;;;5.28;44.25
21182;BME280;10749;46.296;7.524;2023-02-28T09:08:21;94932.84;;;5.25;43.55
21182;BME280;10749;46.296;7.524;2023-02-28T09:10:46;94931.41;;;5.31;43.30
21182;BME280;10749;46.296;7.524;2023-02-28T09:13:12;94929.03;;;5.37;43.73
21182;BME280;10749;46.296;7.524;2023-02-28T09:15:38;94933.56;;;5.45;43.55
21182;BME280;10749;46.296;7.524;2023-02-28T09:18:03;94932.16;;;5.50;43.75
21182;BME280;10749;46.296;7.524;2023-02-28T09:20:29;94930.19;;;5.52;43.95
21182;BME280;10749;46.296;7.524;2023-02-28T09:22:54;94922.78;;;5.66;43.76
21182;BME280;10749;46.296;7.524;2023-02-28T09:25:20;94914.63;;;5.69;43.71
21182;BME280;10749;46.296;7.524;2023-02-28T09:27:45;94919.81;;;5.78;43.80
21182;BME280;10749;46.296;7.524;2023-02-28T09:30:12;94918.41;;;5.84;43.55
21182;BME280;10749;46.296;7.524;2023-02-28T09:32:37;94909.31;;;5.78;42.99
21182;BME280;10749;46.296;7.524;2023-02-28T09:35:03;94903.53;;;5.75;43.62
21182;BME280;10749;46.296;7.524;2023-02-28T09:37:29;94904.81;;;5.88;42.73
21182;BME280;10749;46.296;7.524;2023-02-28T09:39:55;94899.63;;;5.79;42.69
21182;BME280;10749;46.296;7.524;2023-02-28T09:42:25;94903.22;;;5.78;43.46
21182;BME280;10749;46.296;7.524;2023-02-28T09:44:52;94897.38;;;5.84;43.59
21182;BME280;10749;46.296;7.524;2023-02-28T09:47:32;94898.31;;;6.10;43.39
21182;BME280;10749;46.296;7.524;2023-02-28T09:50:03;94900.53;;;6.23;43.59
21182;BME280;10749;46.296;7.524;2023-02-28T09:52:34;94894.44;;;6.40;43.47
21182;BME280;10749;46.296;7.524;2023-02-28T09:57:44;94890.03;;;6.66;43.41
21182;BME280;10749;46.296;7.524;2023-02-28T10:00:22;94883.03;;;6.75;43.31
21182;BME280;10749;46.296;7.524;2023-02-28T10:06:09;94889.06;;;7.01;43.08
21182;BME280;10749;46.296;7.524;2023-02-28T10:11:23;94892.53;;;7.35;43.11
21182;BME280;10749;46.296;7.524;2023-02-28T10:14:05;94879.03;;;7.38;43.46
21182;BME280;10749;46.296;7.524;2023-02-28T10:17:36;94881.91;;;7.61;43.14
21182;BME280;10749;46.296;7.524;2023-02-28T10:19:38;94879.13;;;7.71;43.24
21182;BME280;10749;46.296;7.524;2023-02-28T10:22:11;94881.16;;;7.93;42.92
21182;BME280;10749;46.296;7.524;2023-02-28T10:24:44;94881.50;;;8.06;43.06
21182;BME280;10749;46.296;7.524;2023-02-28T10:27:18;94874.44;;;8.15;42.75
21182;BME280;10749;46.296;7.524;2023-02-28T10:29:48;94877.56;;;8.26;42.58
21182;BME280;10749;46.296;7.524;2023-02-28T10:32:17;94867.38;;;8.40;42.61
21182;BME280;10749;46.296;7.524;2023-02-28T10:34:42;94862.44;;;8.53;42.63
21182;BME280;10749;46.296;7.524;2023-02-28T10:37:09;94849.72;;;8.64;42.66
21182;BME280;10749;46.296;7.524;2023-02-28T10:39:37;94861.38;;;8.78;42.57
21182;BME280;10749;46.296;7.524;2023-02-28T10:42:03;94855.09;;;8.87;42.34
21182;BME280;10749;46.296;7.524;2023-02-28T10:44:29;94850.63;;;8.96;42.18
21182;BME280;10749;46.296;7.524;2023-02-28T10:46:55;94856.06;;;9.02;42.19
21182;BME280;10749;46.296;7.524;2023-02-28T10:49:26;94858.78;;;9.17;42.04
21182;BME280;10749;46.296;7.524;2023-02-28T10:51:58;94849.69;;;9.19;42.20
21182;BME280;10749;46.296;7.524;2023-02-28T10:54:29;94844.41;;;9.27;42.02
21182;BME280;10749;46.296;7.524;2023-02-28T10:57:08;94841.34;;;9.47;42.01
21182;BME280;10749;46.296;7.524;2023-02-28T10:59:34;94844.88;;;9.62;41.75
21182;BME280;10749;46.296;7.524;2023-02-28T11:02:00;94849.13;;;9.71;41.97
21182;BME280;10749;46.296;7.524;2023-02-28T11:07:03;94843.34;;;9.98;41.61
21182;BME280;10749;46.296;7.524;2023-02-28T11:09:34;94842.56;;;10.21;41.60
21182;BME280;10749;46.296;7.524;2023-02-28T11:12:02;94835.47;;;10.13;41.24
21182;BME280;10749;46.296;7.524;2023-02-28T11:14:31;94843.16;;;10.31;41.07
21182;BME280;10749;46.296;7.524;2023-02-28T11:17:11;94838.72;;;10.60;41.40
21182;BME280;10749;46.296;7.524;2023-02-28T11:19:41;94837.94;;;10.75;40.97
21182;BME280;10749;46.296;7.524;2023-02-28T11:22:09;94834.28;;;10.90;41.03
21182;BME280;10749;46.296;7.524;2023-02-28T11:24:44;94833.03;;;11.01;41.04
21182;BME280;10749;46.296;7.524;2023-02-28T11:29:58;94820.53;;;11.09;40.16
21182;BME280;10749;46.296;7.524;2023-02-28T11:32:26;94815.13;;;11.03;40.11
21182;BME280;10749;46.296;7.524;2023-02-28T11:37:34;94812.63;;;11.31;40.39
21182;BME280;10749;46.296;7.524;2023-02-28T11:39:59;94814.75;;;11.35;40.52
21182;BME280;10749;46.296;7.524;2023-02-28T11:45:20;94804.28;;;11.63;40.07
21182;BME280;10749;46.296;7.524;2023-02-28T11:47:48;94794.63;;;11.91;40.16
21182;BME280;10749;46.296;7.524;2023-02-28T11:50:41;94791.75;;;12.14;39.69
21182;BME280;10749;46.296;7.524;2023-02-28T11:56:07;94775.22;;;12.12;38.78
21182;BME280;10749;46.296;7.524;2023-02-28T11:58:54;94767.19;;;12.27;38.67
21182;BME280;10749;46.296;7.524;2023-02-28T12:18:33;94750.94;;;12.99;36.64
21182;BME280;10749;46.296;7.524;2023-02-28T12:24:12;94758.50;;;13.43;37.30
21182;BME280;10749;46.296;7.524;2023-02-28T12:26:44;94756.50;;;13.51;37.67
21182;BME280;10749;46.296;7.524;2023-02-28T12:29:27;94746.31;;;13.68;37.27
21182;BME280;10749;46.296;7.524;2023-02-28T12:32:54;94748.53;;;13.51;37.09
21182;BME280;10749;46.296;7.524;2023-02-28T12:37:33;94738.03;;;14.04;36.83
21182;BME280;10749;46.296;7.524;2023-02-28T12:40:04;94736.19;;;14.11;36.62
21182;BME280;10749;46.296;7.524;2023-02-28T12:42:38;94735.72;;;13.87;36.81
21182;BME280;10749;46.296;7.524;2023-02-28T12:45:11;94740.03;;;13.82;36.67
21182;BME280;10749;46.296;7.524;2023-02-28T12:47:42;94741.38;;;13.45;35.82
21182;BME280;10749;46.296;7.524;2023-02-28T12:50:11;94733.75;;;12.94;35.90
21182;BME280;10749;46.296;7.524;2023-02-28T12:53:15;94734.59;;;12.67;35.83
21182;BME280;10749;46.296;7.524;2023-02-28T12:58:32;94727.34;;;12.48;35.98
21182;BME280;10749;46.296;7.524;2023-02-28T13:01:23;94724.63;;;12.69;35.90
21182;BME280;10749;46.296;7.524;2023-02-28T13:04:20;94722.41;;;13.14;35.80
21182;BME280;10749;46.296;7.524;2023-02-28T13:07:28;94717.09;;;13.14;35.64
21182;BME280;10749;46.296;7.524;2023-02-28T13:09:57;94718.66;;;13.02;35.82
21182;BME280;10749;46.296;7.524;2023-02-28T13:12:24;94713.44;;;12.80;36.21
21182;BME280;10749;46.296;7.524;2023-02-28T13:14:50;94722.47;;;12.52;35.86
21182;BME280;10749;46.296;7.524;2023-02-28T13:17:20;94721.09;;;12.34;35.83
21182;BME280;10749;46.296;7.524;2023-02-28T13:25:13;94725.84;;;12.11;35.75
21182;BME280;10749;46.296;7.524;2023-02-28T13:27:52;94729.84;;;12.00;35.77
21182;BME280;10749;46.296;7.524;2023-02-28T13:38:51;94731.91;;;11.48;36.13
21182;BME280;10749;46.296;7.524;2023-02-28T13:46:31;94728.16;;;11.57;36.18
21182;BME280;10749;46.296;7.524;2023-02-28T13:57:44;94736.09;;;11.57;36.02
21182;BME280;10749;46.296;7.524;2023-02-28T14:06:15;94745.75;;;12.56;36.13
21182;BME280;10749;46.296;7.524;2023-02-28T14:08:50;94741.28;;;12.91;35.63
21182;BME280;10749;46.296;7.524;2023-02-28T14:11:28;94735.75;;;12.86;35.50
21182;BME280;10749;46.296;7.524;2023-02-28T14:13:53;94747.41;;;12.57;35.41
21182;BME280;10749;46.296;7.524;2023-02-28T14:16:37;94747.72;;;12.41;35.47
21182;BME280;10749;46.296;7.524;2023-02-28T14:19:24;94747.09;;;12.18;35.31
21182;BME280;10749;46.296;7.524;2023-02-28T14:22:13;94746.06;;;12.12;35.13
21182;BME280;10749;46.296;7.524;2023-02-28T14:24:54;94753.38;;;11.89;35.42
21182;BME280;10749;46.296;7.524;2023-02-28T14:27:54;94740.38;;;11.37;35.52
21182;BME280;10749;46.296;7.524;2023-02-28T14:36:10;94758.09;;;11.72;35.31
21182;BME280;10749;46.296;7.524;2023-02-28T14:38:44;94753.25;;;12.74;35.36
21182;BME280;10749;46.296;7.524;2023-02-28T14:41:26;94757.19;;;13.66;35.34
21182;BME280;10749;46.296;7.524;2023-02-28T14:43:57;94755.59;;;14.05;35.19
21182;BME280;10749;46.296;7.524;2023-02-28T14:46:25;94758.03;;;14.00;35.32
21182;BME280;10749;46.296;7.524;2023-02-28T14:48:52;94753.72;;;13.72;35.62
21182;BME280;10749;46.296;7.524;2023-02-28T14:51:19;94760.75;;;13.32;35.09
21182;BME280;10749;46.296;7.524;2023-02-28T14:53:49;94753.78;;;12.97;34.88
21182;BME280;10749;46.296;7.524;2023-02-28T14:56:41;94766.56;;;12.53;34.95
21182;BME280;10749;46.296;7.524;2023-02-28T14:59:29;94756.81;;;12.60;35.09
21182;BME280;10749;46.296;7.524;2023-02-28T15:02:19;94759.69;;;12.58;35.38
21182;BME280;10749;46.296;7.524;2023-02-28T15:04:53;94764.81;;;13.01;36.01
21182;BME280;10749;46.296;7.524;2023-02-28T15:07:18;94756.91;;;13.07;35.82
21182;BME280;10749;46.296;7.524;2023-02-28T15:09:43;94764.94;;;12.79;34.93
21182;BME280;10749;46.296;7.524;2023-02-28T15:12:13;94764.91;;;12.24;34.36
21182;BME280;10749;46.296;7.524;2023-02-28T15:14:42;94774.16;;;11.85;34.16
21182;BME280;10749;46.296;7.524;2023-02-28T15:17:17;94762.50;;;11.65;34.69
21182;BME280;10749;46.296;7.524;2023-02-28T15:19:48;94765.88;;;11.38;34.67